Latest Weather Observations for Rolleston Airport

IDQ60801

Issued at 7:35 am EST Wednesday 3 September 2014 (issued every 30 minutes, with the page automatically refreshed every 10 minutes)

About weather observations | Map of weather stations | Latest weather observations for QLD | Other Formats
Station Details ID: 035129 Name: ROLLESTON AIRPORT Lat: -24.46 Lon: 148.63 Height: 219.45 m
Data from the previous 72 hours. | See also: Recent months at Rolleston Airport
Date/Time
EST
Temp
°C
App
Temp
°C
Dew
Point
Rel
Hum
%
Delta-T
°C
Wind Press
QNH
hPa
Press
MSL
hPa
Rain
since 9 am
mm
Dir
 
Spd
km/h
Gust
km/h
Spd
kts
Gust
kts
03/07:30am 11.3 8.3 -1.5 41 5.1 ESE 4 7 2 4 1020.2 1019.6 0.0
03/07:00am 10.2 7.0 -0.6 47 4.3 ESE 6 7 3 4 1019.9 1019.3 0.0
03/06:30am 9.2 6.4 -0.7 50 3.9 SE 4 4 2 2 1019.6 1019.0 0.0
03/06:00am 8.6 5.3 -0.9 51 3.7 SSE 6 7 3 4 1019.1 1018.4 0.0
03/05:30am 9.6 6.3 -0.9 48 4.2 E 6 11 3 6 1018.5 1017.8 0.0
03/05:00am 9.7 6.5 -0.8 48 4.2 SSW 6 9 3 5 1018.1 1017.4 0.0
03/04:30am 9.4 6.1 -0.2 51 3.9 SSE 7 9 4 5 1018.0 1017.3 0.0
03/04:00am 10.7 7.6 -0.1 47 4.4 SSW 6 7 3 4 1017.9 1017.2 0.0
03/03:30am 11.2 8.0 -0.3 45 4.7 S 6 11 3 6 1017.6 1016.9 0.0
03/03:00am 10.2 7.0 -0.3 48 4.2 NE 6 9 3 5 1017.8 1017.1 0.0
03/02:30am 11.2 7.9 0.3 47 4.5 S 7 11 4 6 1017.9 1017.2 0.0
03/02:00am 11.6 8.3 -0.2 44 4.8 ESE 7 9 4 5 1018.0 1017.3 0.0
03/01:30am 12.1 8.7 -0.4 42 5.2 SSE 7 11 4 6 1017.9 1017.2 0.0
03/01:00am 13.1 9.9 -0.2 40 5.5 S 6 11 3 6 1018.0 1017.3 0.0
03/12:30am 12.5 8.7 -0.7 40 5.4 SSE 9 13 5 7 1018.0 1017.3 0.0
03/12:00am 14.5 10.7 -0.8 35 6.4 SSW 9 15 5 8 1017.6 1016.9 0.0
 
Date/Time
EST
Temp
°C
App
Temp
°C
Dew
Point
Rel
Hum
%
Delta-T
°C
Wind Press
QNH
hPa
Press
MSL
hPa
Rain
since 9 am
mm
Dir
 
Spd
km/h
Gust
km/h
Spd
kts
Gust
kts
02/11:30pm 15.7 11.8 -1.4 31 7.1 S 9 17 5 9 1017.6 1016.9 0.0
02/11:00pm 16.0 11.3 -1.5 30 7.3 S 13 17 7 9 1017.3 1016.6 0.0
02/10:30pm 16.1 11.6 -2.9 27 7.7 S 11 15 6 8 1017.2 1016.5 0.0
02/10:00pm 16.9 12.7 -4.3 23 8.4 S 9 17 5 9 1017.1 1016.4 0.0
02/09:30pm 17.9 13.7 -4.1 22 8.9 SSW 9 15 5 8 1016.8 1016.1 0.0
02/09:00pm 18.7 14.2 -3.4 22 9.1 SW 11 17 6 9 1016.4 1015.8 0.0
02/08:30pm 18.6 14.8 -3.5 22 9.1 SSW 7 9 4 5 1015.7 1015.1 0.0
02/08:00pm 20.6 16.4 -3.8 19 10.2 SSW 9 15 5 8 1015.2 1014.5 0.0
02/07:30pm 22.1 16.4 -4.1 17 11.0 SW 17 26 9 14 1014.8 1014.1 0.0
02/07:00pm 23.0 17.2 -5.0 15 11.6 SW 17 26 9 14 1014.3 1013.6 0.0
02/06:30pm 23.8 18.1 -3.5 16 11.8 SW 17 28 9 15 1013.8 1013.1 0.0
02/06:00pm 24.2 18.9 -3.2 16 11.9 WSW 15 22 8 12 1013.3 1012.6 0.0
02/05:30pm 26.1 19.8 -5.5 12 13.4 WSW 19 35 10 19 1012.7 1012.0 0.0
02/05:00pm 27.4 21.4 -3.4 13 13.7 WSW 19 32 10 17 1012.3 1011.6 0.0
02/04:30pm 28.2 21.9 -3.9 12 14.3 WSW 20 32 11 17 1011.6 1011.0 0.0
02/04:00pm 29.0 23.1 -2.2 13 14.4 SW 19 26 10 14 1011.3 1010.7 0.0
02/03:30pm 29.2 22.9 -1.0 14 14.2 WNW 22 35 12 19 1011.2 1010.5 0.0
02/03:00pm 28.7 23.0 -0.5 15 13.8 NW 19 35 10 19 1011.1 1010.4 0.0
02/02:30pm 28.4 22.5 -0.7 15 13.7 W 20 33 11 18 1011.7 1011.1 0.0
02/02:00pm 29.3 23.6 -0.9 14 14.3 WNW 19 43 10 23 1012.2 1011.5 0.0
02/01:30pm 28.6 23.1 0.3 16 13.6 W 19 26 10 14 1012.9 1012.2 0.0
02/01:00pm 27.8 23.4 2.8 20 12.5 W 15 20 8 11 1013.3 1012.6 0.0
02/12:30pm 26.8 20.7 2.7 21 11.9 WNW 24 37 13 20 1013.9 1013.2 0.0
02/12:00pm 25.9 20.4 3.8 24 11.1 WNW 22 33 12 18 1014.7 1014.0 0.0
02/11:30am 25.9 21.0 4.9 26 10.7 WNW 20 32 11 17 1015.4 1014.8 0.0
02/11:00am 24.4 20.4 6.6 32 9.3 WNW 17 30 9 16 1015.8 1015.2 0.0
02/10:30am 22.7 18.3 6.5 35 8.4 NW 19 28 10 15 1016.5 1015.9 0.0
02/10:00am 22.6 17.7 6.8 36 8.2 NNW 22 33 12 18 1016.8 1016.1 0.0
02/09:30am 21.8 17.3 6.9 38 7.7 N 20 32 11 17 1016.9 1016.2 0.0
02/09:00am 20.0 15.5 7.1 43 6.6 N 20 26 11 14 1017.2 1016.5 0.0
02/08:30am 18.2 15.0 6.7 47 5.8 N 13 20 7 11 1017.6 1016.9 0.0
02/08:00am 15.5 12.5 6.0 53 4.6 N 11 19 6 10 1017.6 1016.9 0.0
02/07:30am 14.3 11.3 5.9 57 4.0 N 11 15 6 8 1017.4 1016.7 0.0
02/07:00am 12.5 10.1 5.2 61 3.4 N 7 13 4 7 1017.2 1016.5 0.0
02/06:30am 10.8 7.6 4.9 67 2.7 N 11 15 6 8 1017.0 1016.3 0.0
02/06:00am 10.9 9.4 5.0 67 2.7 NE 2 4 1 2 1017.0 1016.3 0.0
02/05:30am 10.5 9.3 4.4 66 2.8 CALM 0 0 0 0 1016.7 1016.0 0.0
02/05:00am 11.4 9.4 4.6 63 3.1 NNW 4 7 2 4 1016.8 1016.1 0.0
02/04:30am 10.7 8.5 3.5 61 3.2 NNW 4 6 2 3 1016.8 1016.1 0.0
02/04:00am 11.1 9.8 3.9 61 3.2 CALM 0 0 0 0 1016.7 1016.0 0.0
02/03:30am 10.7 8.9 3.3 60 3.3 S 2 4 1 2 1016.4 1015.8 0.0
02/03:00am 11.4 9.3 3.7 59 3.5 S 4 4 2 2 1016.3 1015.7 0.0
02/02:30am 13.9 11.4 5.0 55 4.2 NNW 7 9 4 5 1016.3 1015.7 0.0
02/02:00am 14.5 12.0 5.0 53 4.5 NNW 7 11 4 6 1016.2 1015.6 0.0
02/01:30am 15.4 12.6 5.3 51 4.8 N 9 15 5 8 1016.8 1016.1 0.0
02/01:00am 16.3 12.9 5.9 50 5.1 N 13 20 7 11 1016.9 1016.2 0.0
02/12:30am 15.8 12.5 4.8 48 5.2 NNW 11 15 6 8 1016.9 1016.2 0.0
02/12:00am 15.4 12.0 4.2 47 5.2 NNW 11 17 6 9 1017.0 1016.3 0.0
 
Date/Time
EST
Temp
°C
App
Temp
°C
Dew
Point
Rel
Hum
%
Delta-T
°C
Wind Press
QNH
hPa
Press
MSL
hPa
Rain
since 9 am
mm
Dir
 
Spd
km/h
Gust
km/h
Spd
kts
Gust
kts
01/11:30pm 14.2 11.2 2.1 44 5.4 N 7 11 4 6 1016.9 1016.2 0.0
01/11:00pm 15.0 11.7 0.4 37 6.3 N 7 13 4 7 1016.8 1016.1 0.0
01/10:30pm 15.8 12.5 0.0 34 6.8 N 7 9 4 5 1016.7 1016.0 0.0
01/10:00pm 16.8 13.6 0.5 33 7.1 N 7 9 4 5 1016.7 1016.0 0.0
01/09:30pm 17.3 14.0 0.0 31 7.6 N 7 9 4 5 1016.8 1016.1 0.0
01/09:00pm 18.6 14.9 0.2 29 8.1 NNE 9 11 5 6 1016.9 1016.2 0.0
01/08:30pm 18.4 14.8 0.5 30 8.0 N 9 11 5 6 1016.8 1016.1 0.0
01/08:00pm 18.7 15.6 0.3 29 8.2 N 6 6 3 3 1016.8 1016.1 0.0
01/07:30pm 19.6 16.5 0.1 27 8.7 N 6 6 3 3 1016.3 1015.7 0.0
01/07:00pm 21.1 17.8 0.3 25 9.4 NNE 7 9 4 5 1016.2 1015.6 0.0
01/06:30pm 22.5 18.9 0.4 23 10.2 NNE 9 13 5 7 1015.9 1015.3 0.0
01/06:00pm 23.8 20.5 0.2 21 10.9 NNE 7 9 4 5 1015.6 1015.0 0.0
01/05:30pm 25.8 22.2 0.5 19 11.9 N 9 15 5 8 1015.6 1015.0 0.0
01/05:00pm 26.6 21.8 0.4 18 12.4 N 15 20 8 11 1015.1 1014.4 0.0
01/04:30pm 27.1 23.0 0.0 17 12.8 NNW 11 17 6 9 1015.0 1014.3 0.0
01/04:00pm 27.4 23.0 0.2 17 12.9 N 13 20 7 11 1014.9 1014.2 0.0
01/03:30pm 27.5 24.4 0.3 17 13.0 NW 6 11 3 6 1015.1 1014.4 0.0
01/03:00pm 27.0 23.2 -0.9 16 13.0 NNW 9 26 5 14 1015.3 1014.7 0.0
01/02:30pm 27.0 23.7 -0.1 17 12.8 N 7 15 4 8 1015.6 1015.0 0.0
01/02:00pm 26.5 21.5 -1.3 16 12.8 N 15 35 8 19 1016.0 1015.4 0.0
01/01:30pm 25.9 21.8 -0.2 18 12.2 NNW 11 26 6 14 1016.8 1016.1 0.0
01/01:00pm 27.0 21.8 -0.1 17 12.8 WNW 17 26 9 14 1017.4 1016.7 0.0
01/12:30pm 26.0 21.9 -0.1 18 12.2 N 11 24 6 13 1018.0 1017.3 0.0
01/12:00pm 24.7 20.8 0.9 21 11.2 NNW 11 22 6 12 1018.5 1017.8 0.0
01/11:30am 25.1 21.1 3.1 24 10.8 N 13 20 7 11 1019.0 1018.3 0.0
01/11:00am 23.8 19.4 2.6 25 10.2 NNW 15 26 8 14 1019.5 1018.9 0.0
01/10:30am 22.9 18.2 3.4 28 9.5 NNW 17 26 9 14 1020.0 1019.4 0.0
01/10:00am 22.7 18.9 3.8 29 9.3 NNW 13 26 7 14 1020.0 1019.4 0.0
01/09:30am 20.4 16.5 3.2 32 8.2 N 13 20 7 11 1020.0 1019.7 0.0
01/09:00am 17.5 15.1 1.9 35 7.1 NNE 4 9 2 5 1020.4 1020.1 0.2
01/08:30am 14.4 11.9 -0.8 35 6.3 SSE 2 4 1 2 1020.9 1020.6 0.2
01/08:00am 11.6 9.0 -1.5 40 5.2 SSE 2 4 1 2 1020.8 1020.5 0.2
01/07:30am 9.0 6.4 -1.4 48 4.1 S 2 6 1 3 1020.8 1020.5 0.2
01/07:00am 7.2 4.2 -2.0 52 3.4 S 4 6 2 3 1020.1 1019.8 0.2
01/06:30am 5.5 2.0 -1.4 61 2.6 SSE 7 7 4 4 1019.5 1019.2 0.2
01/06:00am 5.3 3.0 -2.0 59 2.7 CALM 0 0 0 0 1018.9 1018.6 0.2
01/05:30am 4.7 1.6 -2.4 60 2.6 SE 4 6 2 3 1018.8 1018.5 0.2
01/05:00am 5.6 3.3 -2.0 58 2.8 CALM 0 0 0 0 1018.3 1018.0 0.2
01/04:30am 6.7 4.5 -1.7 55 3.2 CALM 0 0 0 0 1017.9 1017.6 0.2
01/04:00am 7.2 5.0 -1.7 53 3.4 CALM 0 0 0 0 1017.7 1017.4 0.2
01/03:30am 8.2 6.0 -1.6 50 3.8 CALM 0 0 0 0 1017.6 1017.3 0.2
01/03:00am 7.9 5.7 -1.9 50 3.7 CALM 0 0 0 0 1017.7 1017.4 0.2
01/02:30am 6.8 3.5 -1.6 55 3.2 N 6 7 3 4 1017.8 1017.5 0.2
01/02:00am 7.3 4.0 -4.4 43 4.1 S 4 9 2 5 1017.8 1017.5 0.2
01/01:30am 11.1 7.5 -2.0 40 5.1 SE 7 9 4 5 1017.9 1017.6 0.2
01/01:00am 10.1 6.4 -2.9 40 4.9 SE 7 9 4 5 1018.0 1017.7 0.2
01/12:30am 10.4 6.4 -1.9 42 4.8 SE 9 11 5 6 1018.2 1017.9 0.2
01/12:00am 10.8 7.2 -3.3 37 5.3 S 6 7 3 4 1018.3 1018.0 0.2
 
Date/Time
EST
Temp
°C
App
Temp
°C
Dew
Point
Rel
Hum
%
Delta-T
°C
Wind Press
QNH
hPa
Press
MSL
hPa
Rain
since 9 am
mm
Dir
 
Spd
km/h
Gust
km/h
Spd
kts
Gust
kts
31/11:30pm 12.8 9.1 -2.6 34 6.1 S 7 9 4 5 1018.2 1017.9 0.2
31/11:00pm 13.1 9.7 -2.4 34 6.2 SSE 6 7 3 4 1018.2 1017.9 0.2
31/10:30pm 12.5 8.8 -2.5 35 5.9 S 7 9 4 5 1018.0 1017.7 0.2
31/10:00pm 12.3 8.9 -2.3 36 5.8 SW 6 9 3 5 1017.8 1017.5 0.2
31/09:30pm 14.1 11.0 -2.8 31 6.7 W 4 6 2 3 1017.6 1017.3 0.2
31/09:00pm 17.8 13.3 -3.6 23 8.7 ENE 11 11 6 6 1017.4 1017.1 0.2
31/08:30pm 17.8 13.6 -3.6 23 8.7 ENE 9 11 5 6 1017.4 1017.1 0.2
31/08:00pm 18.8 14.1 -4.6 20 9.4 E 11 13 6 7 1017.2 1016.9 0.2
31/07:30pm 19.4 14.9 -3.5 21 9.5 E 11 13 6 7 1016.9 1016.5 0.2
31/07:00pm 19.6 15.5 -3.3 21 9.5 ENE 9 9 5 5 1016.5 1016.2 0.2
31/06:30pm 21.6 17.8 -3.7 18 10.7 NE 7 9 4 5 1016.2 1015.9 0.2
31/06:00pm 23.3 19.7 -3.9 16 11.6 E 6 7 3 4 1015.8 1015.5 0.2
31/05:30pm 24.8 22.2 -4.5 14 12.5 CALM 0 0 0 0 1015.7 1015.4 0.2
31/05:00pm 25.5 21.8 -4.9 13 13.0 E 6 9 3 5 1015.5 1015.2 0.2
31/04:30pm 25.6 21.8 -3.8 14 12.8 SSE 7 11 4 6 1015.3 1015.0 0.0
31/04:00pm 26.3 22.6 -4.3 13 13.3 SW 6 11 3 6 1015.3 1015.0 0.0
31/03:30pm 26.5 23.2 -4.1 13 13.4 E 4 11 2 6 1015.2 1014.9 0.0
31/03:00pm 26.7 23.1 -4.0 13 13.4 SW 6 11 3 6 1015.5 1015.2 0.0
31/02:30pm 25.6 21.7 -4.8 13 13.0 S 7 17 4 9 1015.8 1015.5 0.0
31/02:00pm 25.3 21.4 -5.1 13 12.9 WSW 7 13 4 7 1016.1 1015.8 0.0
31/01:30pm 25.0 20.7 -5.3 13 12.8 SSW 9 17 5 9 1016.7 1016.3 0.0
31/01:00pm 24.2 19.3 -3.2 16 11.9 W 13 24 7 13 1017.1 1016.7 0.0
31/12:30pm 24.3 20.8 -3.1 16 12.0 SW 6 17 3 9 1017.7 1017.4 0.0
31/12:00pm 23.6 20.5 -2.8 17 11.5 SW 4 13 2 7 1018.4 1018.1 0.0
31/11:30am 23.4 20.0 -2.2 18 11.3 WSW 6 11 3 6 1018.8 1018.5 0.0
31/11:00am 22.1 18.5 -3.3 18 10.8 SSW 6 11 3 6 1019.5 1019.2 0.0
31/10:30am 21.7 18.2 -2.9 19 10.5 SW 6 11 3 6 1020.1 1019.8 0.0
31/10:00am 20.8 17.2 -2.3 21 9.9 S 7 15 4 8 1020.5 1020.2 0.0
31/09:30am 19.5 15.6 -1.6 24 9.1 S 9 15 5 8 1020.7 1020.4 0.0
31/09:00am 16.9 13.4 -1.2 29 7.6 S 7 11 4 6 1021.0 1020.8 0.0
31/08:30am 14.0 11.1 -0.8 36 6.2 S 4 6 2 3 1021.1 1020.9 0.0
31/08:00am 11.3 8.0 -1.5 41 5.1 S 6 11 3 6 1020.7 1020.4 0.0

Other Formats:

Comma delimited format used in spreadsheet applications
http://www.bom.gov.au/fwo/IDQ60801/IDQ60801.94396.axf

JavaScript Object Notation format (JSON) in row-major order
http://www.bom.gov.au/fwo/IDQ60801/IDQ60801.94396.json